Time;durP1;ratioP1;P1;durP2;ratioP2;P2;SDS_P1;SDS_P2;PMS_P1;PMS_P2;Temp;Humidity;BMP_temperature;BMP_pressure;BME280_temperature;BME280_humidity;BME280_pressure;Samples;Min_cycle;Max_cycle;Signal;HPM_P1;HPM_P2
2024/01/20 00:00:22;;;;;;;15.38;6.65;;;;;;;;;;5124418;27;20127;-76
2024/01/20 00:02:49;;;;;;;13.23;6.68;;;;;;;;;;5142430;27;20043;-77
2024/01/20 00:05:16;;;;;;;12.43;6.55;;;;;;;;;;5142488;27;20088;-76
2024/01/20 00:07:45;;;;;;;11.68;6.50;;;;;;;;;;5142372;27;20047;-77
2024/01/20 00:10:15;;;;;;;12.05;6.25;;;;;;;;;;5141925;27;20302;-76
2024/01/20 00:12:45;;;;;;;13.50;6.32;;;;;;;;;;5142454;27;20115;-75
2024/01/20 00:15:12;;;;;;;12.82;6.57;;;;;;;;;;5142555;27;20043;-77
2024/01/20 00:17:42;;;;;;;10.75;6.00;;;;;;;;;;5124551;27;20080;-74
2024/01/20 00:20:12;;;;;;;12.52;7.00;;;;;;;;;;5141468;27;20050;-74
2024/01/20 00:22:45;;;;;;;12.27;6.63;;;;;;;;;;5142160;27;20325;-74
2024/01/20 00:25:12;;;;;;;10.00;6.05;;;;;;;;;;5141679;27;20142;-76
2024/01/20 00:27:40;;;;;;;13.07;6.40;;;;;;;;;;5124038;27;20144;-75
2024/01/20 00:30:07;;;;;;;10.60;5.93;;;;;;;;;;5141701;27;20080;-73
2024/01/20 00:32:34;;;;;;;12.77;6.25;;;;;;;;;;5141834;27;20118;-76
2024/01/20 00:35:03;;;;;;;10.45;5.80;;;;;;;;;;5141701;27;20479;-76
2024/01/20 00:37:36;;;;;;;10.70;5.78;;;;;;;;;;5141825;27;20220;-75
2024/01/20 00:40:04;;;;;;;12.48;6.45;;;;;;;;;;5141152;27;20050;-75
2024/01/20 00:42:31;;;;;;;9.68;5.72;;;;;;;;;;5123941;27;20047;-75
2024/01/20 00:44:58;;;;;;;10.60;5.72;;;;;;;;;;5141629;27;20080;-74
2024/01/20 00:47:24;;;;;;;10.80;5.78;;;;;;;;;;5142010;27;20114;-75
2024/01/20 00:49:51;;;;;;;14.77;6.18;;;;;;;;;;5141505;27;20069;-75
2024/01/20 00:52:18;;;;;;;11.00;5.57;;;;;;;;;;5141420;27;20070;-77
2024/01/20 00:54:47;;;;;;;12.40;5.57;;;;;;;;;;5141483;27;20050;-79
2024/01/20 00:57:15;;;;;;;11.57;5.55;;;;;;;;;;5141709;27;20110;-74
2024/01/20 00:59:41;;;;;;;10.48;5.47;;;;;;;;;;5141510;27;20043;-74
2024/01/20 01:02:08;;;;;;;12.57;5.65;;;;;;;;;;5141796;27;20046;-79
2024/01/20 01:04:35;;;;;;;10.45;5.80;;;;;;;;;;5141424;28;20331;-75
2024/01/20 01:07:02;;;;;;;9.43;5.43;;;;;;;;;;5141224;27;20288;-75
2024/01/20 01:09:29;;;;;;;12.65;5.43;;;;;;;;;;5122553;28;20110;-76
2024/01/20 01:11:56;;;;;;;10.90;4.97;;;;;;;;;;5140521;28;20047;-77
2024/01/20 01:14:23;;;;;;;9.57;5.00;;;;;;;;;;5141354;28;20082;-75
2024/01/20 01:16:49;;;;;;;11.43;5.20;;;;;;;;;;5141737;28;20050;-77
2024/01/20 01:19:19;;;;;;;8.45;4.50;;;;;;;;;;5122916;28;20050;-76
2024/01/20 01:21:49;;;;;;;10.73;4.55;;;;;;;;;;5123334;28;20057;-77
2024/01/20 01:24:16;;;;;;;9.13;4.43;;;;;;;;;;5140955;28;20043;-76
2024/01/20 01:26:44;;;;;;;8.48;4.40;;;;;;;;;;5123494;28;20049;-79
2024/01/20 01:29:11;;;;;;;10.20;4.30;;;;;;;;;;5140977;28;20050;-78
2024/01/20 01:31:38;;;;;;;9.40;4.47;;;;;;;;;;5141350;27;20043;-77
2024/01/20 01:34:04;;;;;;;9.95;3.92;;;;;;;;;;5145288;27;20347;-74
2024/01/20 01:36:31;;;;;;;8.48;4.65;;;;;;;;;;5145636;27;20311;-77
2024/01/20 01:38:58;;;;;;;8.73;4.47;;;;;;;;;;5145185;27;20049;-75
2024/01/20 01:41:24;;;;;;;8.73;4.10;;;;;;;;;;5145962;27;20051;-76
2024/01/20 01:43:52;;;;;;;6.95;3.97;;;;;;;;;;5145800;27;20071;-73
2024/01/20 01:46:19;;;;;;;8.20;4.45;;;;;;;;;;5145290;27;20043;-73
2024/01/20 01:48:47;;;;;;;7.50;3.88;;;;;;;;;;5145428;27;20051;-76
2024/01/20 01:51:16;;;;;;;6.47;3.78;;;;;;;;;;5145157;27;20050;-76
2024/01/20 01:53:43;;;;;;;8.80;4.50;;;;;;;;;;5144978;27;20332;-74
2024/01/20 01:56:11;;;;;;;8.18;4.10;;;;;;;;;;5144674;27;20043;-74
2024/01/20 01:58:38;;;;;;;8.02;3.70;;;;;;;;;;5144748;27;20078;-74
2024/01/20 02:01:05;;;;;;;9.88;3.70;;;;;;;;;;5144379;27;20050;-77
2024/01/20 02:03:32;;;;;;;8.07;3.60;;;;;;;;;;5144794;27;20050;-75
2024/01/20 02:05:59;;;;;;;6.60;3.60;;;;;;;;;;5144713;27;20227;-75
2024/01/20 02:08:26;;;;;;;7.63;3.40;;;;;;;;;;5144683;27;20073;-73
2024/01/20 02:10:54;;;;;;;6.28;3.15;;;;;;;;;;5144166;27;20059;-75
2024/01/20 02:13:21;;;;;;;7.47;3.40;;;;;;;;;;5144654;27;20051;-74
2024/01/20 02:15:48;;;;;;;5.90;3.42;;;;;;;;;;5144849;27;20043;-75
2024/01/20 02:18:21;;;;;;;5.38;2.88;;;;;;;;;;5144573;27;20479;-74
2024/01/20 02:20:48;;;;;;;6.03;3.10;;;;;;;;;;5126205;27;20051;-75
2024/01/20 02:23:17;;;;;;;7.20;3.10;;;;;;;;;;5144778;27;20035;-74
2024/01/20 02:25:46;;;;;;;4.95;3.00;;;;;;;;;;5144331;27;20162;-75
2024/01/20 02:28:14;;;;;;;5.35;2.63;;;;;;;;;;5144620;27;20096;-73
2024/01/20 02:30:42;;;;;;;4.30;2.75;;;;;;;;;;5144244;27;20043;-77
2024/01/20 02:33:09;;;;;;;4.97;2.70;;;;;;;;;;5144174;27;20114;-74
2024/01/20 02:35:36;;;;;;;5.25;2.83;;;;;;;;;;5126059;27;20059;-75
2024/01/20 02:38:02;;;;;;;4.75;2.33;;;;;;;;;;5144347;27;20043;-74
2024/01/20 02:40:29;;;;;;;3.80;2.28;;;;;;;;;;5143684;27;20053;-75
2024/01/20 02:42:56;;;;;;;6.55;2.67;;;;;;;;;;5143756;27;20043;-75
2024/01/20 02:45:23;;;;;;;5.07;2.88;;;;;;;;;;5144324;27;20050;-73
2024/01/20 02:47:51;;;;;;;5.28;2.75;;;;;;;;;;5144036;27;20074;-75
2024/01/20 02:50:21;;;;;;;5.28;2.63;;;;;;;;;;5126256;27;20043;-74
2024/01/20 02:52:47;;;;;;;5.68;2.70;;;;;;;;;;5125838;27;20081;-76
2024/01/20 02:55:14;;;;;;;6.68;3.60;;;;;;;;;;5143469;27;20106;-76
2024/01/20 02:57:41;;;;;;;6.00;3.10;;;;;;;;;;5143808;27;20351;-75
2024/01/20 03:00:08;;;;;;;8.68;3.65;;;;;;;;;;5143243;27;20323;-76
2024/01/20 03:02:35;;;;;;;7.15;3.45;;;;;;;;;;5143777;27;20088;-74
2024/01/20 03:05:02;;;;;;;5.60;3.10;;;;;;;;;;5125734;27;20043;-75
2024/01/20 03:07:29;;;;;;;5.53;3.20;;;;;;;;;;5143912;27;20047;-76
2024/01/20 03:09:55;;;;;;;5.25;3.15;;;;;;;;;;5142814;27;20045;-79
2024/01/20 03:12:22;;;;;;;5.90;3.05;;;;;;;;;;5143164;27;20277;-80
2024/01/20 03:14:49;;;;;;;5.93;3.20;;;;;;;;;;5143547;27;20448;-78
2024/01/20 03:17:16;;;;;;;4.93;2.95;;;;;;;;;;5143598;27;20071;-78
2024/01/20 03:19:43;;;;;;;6.38;3.55;;;;;;;;;;5143319;27;20081;-73
2024/01/20 03:22:10;;;;;;;7.90;4.07;;;;;;;;;;5143428;27;20079;-74
2024/01/20 03:24:36;;;;;;;7.72;4.13;;;;;;;;;;5143043;27;20265;-74
2024/01/20 03:27:03;;;;;;;7.07;3.70;;;;;;;;;;5143412;27;20227;-73
2024/01/20 03:29:30;;;;;;;6.07;3.83;;;;;;;;;;5143233;27;20050;-73
2024/01/20 03:31:57;;;;;;;7.15;4.18;;;;;;;;;;5142884;27;20096;-75
2024/01/20 03:34:27;;;;;;;5.70;3.63;;;;;;;;;;5143074;27;20180;-73
2024/01/20 03:36:57;;;;;;;6.28;3.78;;;;;;;;;;5143318;27;20047;-75
2024/01/20 03:39:27;;;;;;;7.05;3.45;;;;;;;;;;5142705;27;20365;-74
2024/01/20 03:41:54;;;;;;;8.07;3.93;;;;;;;;;;5142571;27;20296;-74
2024/01/20 03:44:21;;;;;;;6.85;3.80;;;;;;;;;;5142855;27;20079;-73
2024/01/20 03:46:48;;;;;;;7.05;3.53;;;;;;;;;;5142721;27;20043;-74
2024/01/20 03:49:15;;;;;;;6.55;4.00;;;;;;;;;;5142946;27;20043;-74
2024/01/20 03:51:42;;;;;;;6.80;3.22;;;;;;;;;;5142679;27;20043;-74
2024/01/20 03:54:09;;;;;;;6.38;3.58;;;;;;;;;;5142137;27;20180;-75
2024/01/20 03:56:45;;;;;;;6.57;3.55;;;;;;;;;;5141980;27;20043;-75
2024/01/20 03:59:11;;;;;;;7.82;3.60;;;;;;;;;;5142827;27;20070;-74
2024/01/20 04:01:39;;;;;;;7.32;3.67;;;;;;;;;;5142146;27;20047;-75
2024/01/20 04:04:06;;;;;;;6.10;3.50;;;;;;;;;;5142569;27;20047;-74
2024/01/20 04:06:33;;;;;;;6.22;3.40;;;;;;;;;;5142222;27;20298;-74
2024/01/20 04:09:00;;;;;;;7.95;3.35;;;;;;;;;;5142211;27;20050;-74
2024/01/20 04:11:30;;;;;;;5.50;3.50;;;;;;;;;;5141773;27;20059;-77
2024/01/20 04:13:59;;;;;;;6.35;3.40;;;;;;;;;;5142327;27;20075;-73
2024/01/20 04:16:26;;;;;;;7.15;3.30;;;;;;;;;;5142117;27;20043;-75
2024/01/20 04:18:53;;;;;;;6.40;3.45;;;;;;;;;;5124058;27;20673;-77
2024/01/20 04:21:20;;;;;;;6.07;3.30;;;;;;;;;;5141756;27;20051;-73
2024/01/20 04:23:46;;;;;;;6.13;3.22;;;;;;;;;;5141770;27;20043;-74
2024/01/20 04:26:13;;;;;;;6.55;3.72;;;;;;;;;;5141658;27;20390;-73
2024/01/20 04:28:40;;;;;;;6.90;3.88;;;;;;;;;;5141964;27;20062;-74
2024/01/20 04:31:06;;;;;;;7.18;3.70;;;;;;;;;;5141763;27;20054;-75
2024/01/20 04:33:34;;;;;;;6.15;3.63;;;;;;;;;;5142127;27;20235;-74
2024/01/20 04:36:02;;;;;;;7.32;3.80;;;;;;;;;;5142309;27;20426;-74
2024/01/20 04:38:31;;;;;;;8.52;4.38;;;;;;;;;;5142683;27;20043;-77
2024/01/20 04:41:01;;;;;;;6.05;3.33;;;;;;;;;;5141646;27;20494;-77
2024/01/20 04:43:31;;;;;;;6.65;3.75;;;;;;;;;;5142023;27;20054;-74
2024/01/20 04:45:58;;;;;;;7.75;3.85;;;;;;;;;;5141805;27;20050;-74
2024/01/20 04:48:28;;;;;;;7.22;3.80;;;;;;;;;;5142115;27;20050;-75
2024/01/20 04:50:58;;;;;;;7.30;3.65;;;;;;;;;;5141651;27;20047;-80
2024/01/20 04:53:25;;;;;;;7.15;3.50;;;;;;;;;;5141701;27;20047;-78
2024/01/20 04:55:52;;;;;;;4.88;3.30;;;;;;;;;;5141258;27;20050;-78
2024/01/20 04:58:18;;;;;;;7.07;3.30;;;;;;;;;;5141500;27;20050;-77
2024/01/20 05:00:45;;;;;;;6.25;3.47;;;;;;;;;;5141428;27;20043;-76
2024/01/20 05:03:12;;;;;;;7.65;3.88;;;;;;;;;;5141846;27;20043;-75
2024/01/20 05:05:39;;;;;;;6.43;3.65;;;;;;;;;;5141436;27;20046;-76
2024/01/20 05:08:06;;;;;;;8.13;3.92;;;;;;;;;;5141165;27;20053;-76
2024/01/20 05:10:33;;;;;;;7.03;4.10;;;;;;;;;;5122586;28;20047;-76
2024/01/20 05:13:03;;;;;;;7.40;3.78;;;;;;;;;;5141234;28;20332;-75
2024/01/20 05:15:33;;;;;;;6.72;3.80;;;;;;;;;;5141683;28;20217;-76
2024/01/20 05:18:03;;;;;;;6.70;3.90;;;;;;;;;;5141264;28;20115;-75
2024/01/20 05:20:30;;;;;;;8.95;4.07;;;;;;;;;;5141532;28;20235;-75
2024/01/20 05:22:59;;;;;;;9.38;3.80;;;;;;;;;;5141075;28;20349;-75
2024/01/20 05:25:26;;;;;;;6.25;3.42;;;;;;;;;;5140742;28;20047;-74
2024/01/20 05:27:53;;;;;;;7.32;3.63;;;;;;;;;;5141562;28;20043;-77
2024/01/20 05:30:23;;;;;;;6.50;3.63;;;;;;;;;;5141156;28;20067;-75
2024/01/20 05:32:50;;;;;;;5.82;3.65;;;;;;;;;;5141319;28;20100;-74
2024/01/20 05:35:18;;;;;;;7.55;3.53;;;;;;;;;;5141290;28;20080;-74
2024/01/20 05:37:45;;;;;;;6.72;3.85;;;;;;;;;;5141231;28;20086;-77
2024/01/20 05:40:12;;;;;;;7.40;4.05;;;;;;;;;;5140941;28;20047;-75
2024/01/20 05:42:39;;;;;;;7.38;4.38;;;;;;;;;;5141038;28;20051;-74
2024/01/20 05:45:08;;;;;;;6.75;3.67;;;;;;;;;;5141231;28;20047;-76
2024/01/20 05:47:36;;;;;;;7.45;3.22;;;;;;;;;;5141093;28;20050;-77
2024/01/20 05:50:06;;;;;;;7.25;4.00;;;;;;;;;;5141214;28;20043;-77
2024/01/20 05:52:36;;;;;;;7.28;4.20;;;;;;;;;;5122951;28;20102;-77
2024/01/20 05:55:06;;;;;;;9.13;3.93;;;;;;;;;;5140584;28;20043;-76
2024/01/20 05:57:36;;;;;;;7.45;4.07;;;;;;;;;;5141244;28;20043;-76
2024/01/20 06:00:06;;;;;;;7.97;4.20;;;;;;;;;;5141396;28;20071;-75
2024/01/20 06:02:32;;;;;;;7.57;3.78;;;;;;;;;;5122419;28;20088;-76
2024/01/20 06:04:59;;;;;;;7.68;3.80;;;;;;;;;;5141040;27;20066;-75
2024/01/20 06:07:26;;;;;;;7.28;3.72;;;;;;;;;;5140616;28;20050;-75
2024/01/20 06:09:53;;;;;;;5.82;3.70;;;;;;;;;;5140126;28;20053;-74
2024/01/20 06:12:19;;;;;;;7.10;3.42;;;;;;;;;;5140737;28;20047;-76
2024/01/20 06:14:46;;;;;;;6.97;3.95;;;;;;;;;;5140700;28;20050;-73
2024/01/20 06:17:13;;;;;;;7.68;4.00;;;;;;;;;;5140684;27;20357;-76
2024/01/20 06:19:39;;;;;;;6.22;3.85;;;;;;;;;;5125959;27;20043;-76
2024/01/20 06:22:06;;;;;;;6.90;3.40;;;;;;;;;;5126100;27;20055;-75
2024/01/20 06:24:33;;;;;;;8.18;4.03;;;;;;;;;;5144105;27;20050;-75
2024/01/20 06:27:02;;;;;;;5.35;3.38;;;;;;;;;;5144212;27;20075;-74
2024/01/20 06:29:28;;;;;;;6.65;3.75;;;;;;;;;;5144205;27;20047;-75
2024/01/20 06:31:55;;;;;;;6.43;3.50;;;;;;;;;;5144627;27;20123;-74
2024/01/20 06:34:22;;;;;;;6.47;3.33;;;;;;;;;;5126459;27;20105;-74
2024/01/20 06:36:49;;;;;;;6.78;3.55;;;;;;;;;;5144132;27;20266;-74
2024/01/20 06:39:15;;;;;;;7.15;3.75;;;;;;;;;;5143718;27;20049;-73
2024/01/20 06:41:45;;;;;;;6.60;3.53;;;;;;;;;;5125450;27;20074;-73
2024/01/20 06:44:12;;;;;;;7.00;3.83;;;;;;;;;;5143972;27;20496;-75
2024/01/20 06:46:38;;;;;;;6.32;3.50;;;;;;;;;;5143841;27;20057;-75
2024/01/20 06:49:05;;;;;;;6.82;3.50;;;;;;;;;;5143998;27;20050;-73
2024/01/20 06:51:32;;;;;;;6.90;4.15;;;;;;;;;;5143689;27;20053;-76
2024/01/20 06:53:59;;;;;;;6.45;3.47;;;;;;;;;;5143756;27;20050;-74
2024/01/20 06:56:26;;;;;;;7.03;3.92;;;;;;;;;;5125864;27;20043;-74
2024/01/20 06:58:55;;;;;;;6.95;3.50;;;;;;;;;;5143507;27;20204;-74
2024/01/20 07:01:23;;;;;;;8.60;3.70;;;;;;;;;;5143551;27;20099;-74
2024/01/20 07:03:50;;;;;;;6.15;3.60;;;;;;;;;;5143761;27;20043;-74
2024/01/20 07:06:22;;;;;;;5.90;3.60;;;;;;;;;;5143641;27;20043;-75
2024/01/20 07:08:49;;;;;;;6.03;3.55;;;;;;;;;;5143170;27;20307;-75
2024/01/20 07:11:16;;;;;;;6.00;3.72;;;;;;;;;;5143319;27;20216;-74
2024/01/20 07:13:43;;;;;;;6.72;3.45;;;;;;;;;;5143338;27;20088;-74
2024/01/20 07:16:11;;;;;;;6.95;3.83;;;;;;;;;;5143625;27;20055;-75
2024/01/20 07:18:41;;;;;;;7.60;4.00;;;;;;;;;;5143483;27;20043;-78
2024/01/20 07:21:09;;;;;;;6.55;3.53;;;;;;;;;;5143273;27;20274;-77
2024/01/20 07:23:35;;;;;;;6.85;3.58;;;;;;;;;;5143012;27;20051;-76
2024/01/20 07:26:02;;;;;;;7.95;3.65;;;;;;;;;;5142833;27;20335;-76
2024/01/20 07:28:29;;;;;;;6.15;3.75;;;;;;;;;;5143532;27;20043;-76
2024/01/20 07:30:56;;;;;;;6.85;3.80;;;;;;;;;;5142977;27;20043;-76
2024/01/20 07:33:22;;;;;;;7.55;3.55;;;;;;;;;;5143708;27;20114;-74
2024/01/20 07:35:49;;;;;;;7.90;4.15;;;;;;;;;;5143983;27;20080;-75
2024/01/20 07:38:19;;;;;;;7.30;3.58;;;;;;;;;;5142932;27;20088;-75
2024/01/20 07:40:46;;;;;;;6.03;3.38;;;;;;;;;;5124544;27;20138;-76
2024/01/20 07:43:14;;;;;;;6.68;3.67;;;;;;;;;;5142663;27;20335;-73
2024/01/20 07:45:41;;;;;;;6.80;3.55;;;;;;;;;;5142771;27;20111;-75
2024/01/20 07:48:08;;;;;;;5.78;3.38;;;;;;;;;;5142530;27;20078;-75
2024/01/20 07:50:37;;;;;;;6.25;3.50;;;;;;;;;;5142761;27;20339;-74
2024/01/20 07:53:03;;;;;;;6.75;3.72;;;;;;;;;;5142408;27;20088;-75
2024/01/20 07:55:30;;;;;;;6.82;3.85;;;;;;;;;;5142319;27;20043;-75
2024/01/20 07:57:57;;;;;;;5.35;3.22;;;;;;;;;;5142546;27;20043;-74
2024/01/20 08:00:24;;;;;;;7.82;4.00;;;;;;;;;;5142437;27;20478;-74
2024/01/20 08:02:50;;;;;;;7.22;4.15;;;;;;;;;;5142218;27;20047;-74
2024/01/20 08:05:18;;;;;;;7.15;3.60;;;;;;;;;;5142434;27;20074;-77
2024/01/20 08:07:44;;;;;;;6.68;3.88;;;;;;;;;;5142283;27;20047;-74
2024/01/20 08:10:12;;;;;;;6.35;4.05;;;;;;;;;;5141796;27;20133;-76
2024/01/20 08:12:38;;;;;;;6.28;3.72;;;;;;;;;;5142278;27;20050;-78
2024/01/20 08:15:07;;;;;;;8.93;4.13;;;;;;;;;;5141995;27;20047;-77
2024/01/20 08:17:33;;;;;;;9.52;4.35;;;;;;;;;;5142272;27;20114;-76
2024/01/20 08:20:01;;;;;;;7.60;4.18;;;;;;;;;;5142054;27;20043;-80
2024/01/20 08:22:28;;;;;;;7.57;3.92;;;;;;;;;;5124033;27;20148;-78
2024/01/20 08:24:56;;;;;;;7.38;3.67;;;;;;;;;;5141776;27;20077;-78
2024/01/20 08:27:22;;;;;;;6.93;3.70;;;;;;;;;;5123830;27;20047;-80
2024/01/20 08:29:49;;;;;;;6.35;3.97;;;;;;;;;;5142088;27;20049;-79
2024/01/20 08:32:16;;;;;;;8.80;4.55;;;;;;;;;;5141640;27;20502;-79
2024/01/20 08:34:43;;;;;;;6.55;3.95;;;;;;;;;;5141414;27;20080;-78
2024/01/20 08:37:10;;;;;;;7.80;4.55;;;;;;;;;;5142027;27;20049;-77
2024/01/20 08:39:37;;;;;;;8.95;4.50;;;;;;;;;;5137096;27;20106;-80
2024/01/20 08:42:04;;;;;;;8.15;4.45;;;;;;;;;;5132540;27;20058;-82
2024/01/20 08:44:32;;;;;;;9.57;4.50;;;;;;;;;;5132381;27;20039;-77
2024/01/20 08:46:59;;;;;;;9.88;4.78;;;;;;;;;;5141641;27;20043;-75
2024/01/20 08:49:25;;;;;;;7.22;4.28;;;;;;;;;;5140368;27;20106;-74
2024/01/20 08:51:52;;;;;;;7.15;4.43;;;;;;;;;;5140370;27;20349;-76
2024/01/20 08:54:19;;;;;;;7.32;3.97;;;;;;;;;;5139885;27;20429;-75
2024/01/20 08:56:47;;;;;;;6.80;3.95;;;;;;;;;;5140667;27;20039;-76
2024/01/20 08:59:19;;;;;;;6.10;3.92;;;;;;;;;;5140324;27;20039;-77
2024/01/20 09:01:46;;;;;;;5.63;3.55;;;;;;;;;;5140265;27;20107;-76
2024/01/20 09:04:13;;;;;;;5.63;3.65;;;;;;;;;;5141068;27;20058;-76
2024/01/20 09:06:40;;;;;;;5.05;3.05;;;;;;;;;;5141486;27;20051;-79
2024/01/20 09:09:07;;;;;;;5.35;3.45;;;;;;;;;;5141360;27;20050;-76
2024/01/20 09:11:34;;;;;;;6.45;3.47;;;;;;;;;;5141175;27;20055;-76
2024/01/20 09:14:01;;;;;;;4.00;2.58;;;;;;;;;;5141235;28;20116;-75
2024/01/20 09:16:28;;;;;;;3.97;2.58;;;;;;;;;;5141436;28;20230;-76
2024/01/20 09:18:55;;;;;;;4.80;2.40;;;;;;;;;;5136101;27;20108;-76
2024/01/20 09:21:22;;;;;;;3.42;2.17;;;;;;;;;;5120585;28;20054;-76
2024/01/20 09:23:50;;;;;;;4.88;3.00;;;;;;;;;;5118588;28;20101;-76
2024/01/20 09:26:17;;;;;;;3.78;2.50;;;;;;;;;;5102790;28;20051;-76
2024/01/20 09:28:44;;;;;;;3.67;2.28;;;;;;;;;;5102278;28;20244;-76
2024/01/20 09:31:11;;;;;;;3.20;2.40;;;;;;;;;;5120747;28;20258;-77
2024/01/20 09:33:38;;;;;;;3.47;2.40;;;;;;;;;;5120711;28;20108;-76
2024/01/20 09:36:05;;;;;;;5.18;3.72;;;;;;;;;;5120423;28;20239;-78
2024/01/20 09:38:32;;;;;;;6.03;3.47;;;;;;;;;;5102795;28;20093;-76
2024/01/20 09:40:59;;;;;;;7.72;3.50;;;;;;;;;;5126056;28;20119;-75
2024/01/20 09:43:29;;;;;;;4.47;3.33;;;;;;;;;;5140970;28;20043;-77
2024/01/20 09:45:58;;;;;;;6.95;3.70;;;;;;;;;;5141220;28;20051;-76
2024/01/20 09:48:25;;;;;;;6.70;3.67;;;;;;;;;;5141220;28;20102;-80
2024/01/20 09:50:51;;;;;;;7.03;3.78;;;;;;;;;;5141096;28;20074;-75
2024/01/20 09:53:18;;;;;;;6.97;4.35;;;;;;;;;;5141506;27;20346;-75
2024/01/20 09:55:46;;;;;;;6.13;4.00;;;;;;;;;;5144371;27;20081;-76
2024/01/20 09:58:16;;;;;;;7.20;4.13;;;;;;;;;;5144730;27;20320;-77
2024/01/20 10:00:44;;;;;;;6.03;4.00;;;;;;;;;;5144854;27;20059;-77
2024/01/20 10:03:12;;;;;;;9.55;4.88;;;;;;;;;;5144934;27;20051;-76
2024/01/20 10:05:39;;;;;;;7.45;4.30;;;;;;;;;;5144905;27;20088;-74
2024/01/20 10:08:07;;;;;;;6.45;3.92;;;;;;;;;;5145656;27;20110;-80
2024/01/20 10:10:34;;;;;;;6.30;4.22;;;;;;;;;;5144208;27;20254;-79
2024/01/20 10:13:02;;;;;;;8.05;4.65;;;;;;;;;;5115387;28;20046;-81
2024/01/20 10:15:30;;;;;;;5.93;4.38;;;;;;;;;;5141571;27;20047;-79
2024/01/20 10:18:06;;;;;;;7.13;4.72;;;;;;;;;;5123929;28;20047;-79
2024/01/20 10:20:35;;;;;;;7.63;4.65;;;;;;;;;;5123899;27;20078;-80
2024/01/20 10:23:05;;;;;;;7.43;4.90;;;;;;;;;;5123422;27;20047;-76
2024/01/20 10:25:32;;;;;;;6.53;4.35;;;;;;;;;;5123963;28;20044;-78
2024/01/20 10:27:58;;;;;;;5.82;4.07;;;;;;;;;;5135204;27;20043;-80
2024/01/20 10:30:26;;;;;;;7.80;4.80;;;;;;;;;;5126664;27;20050;-79
2024/01/20 10:32:53;;;;;;;6.13;4.38;;;;;;;;;;5123926;28;20163;-75
2024/01/20 10:35:35;;;;;;;9.00;4.57;;;;;;;;;;5123508;28;20044;-76
2024/01/20 10:38:08;;;;;;;9.65;4.65;;;;;;;;;;5123683;28;20047;-73
2024/01/20 10:40:37;;;;;;;6.88;4.57;;;;;;;;;;5125228;27;20047;-77
2024/01/20 10:43:16;;;;;;;7.38;5.28;;;;;;;;;;5126321;27;20277;-77
2024/01/20 10:45:54;;;;;;;6.80;5.00;;;;;;;;;;5143619;27;20047;-78
2024/01/20 10:48:26;;;;;;;7.40;5.15;;;;;;;;;;5125682;27;20051;-77
2024/01/20 10:51:03;;;;;;;7.85;5.20;;;;;;;;;;5143624;27;20336;-78
2024/01/20 10:53:30;;;;;;;8.80;5.70;;;;;;;;;;5125447;27;20051;-75
2024/01/20 10:55:58;;;;;;;6.95;4.57;;;;;;;;;;5143640;27;20145;-76
2024/01/20 10:58:33;;;;;;;7.97;5.35;;;;;;;;;;5129635;27;20350;-77
2024/01/20 11:01:00;;;;;;;9.40;4.82;;;;;;;;;;5122936;28;20293;-76
2024/01/20 11:03:27;;;;;;;7.15;5.00;;;;;;;;;;5122761;28;20224;-77
2024/01/20 11:05:54;;;;;;;8.18;5.22;;;;;;;;;;5122536;28;20043;-76
2024/01/20 11:08:25;;;;;;;10.32;5.05;;;;;;;;;;5122582;28;20063;-76
2024/01/20 11:10:54;;;;;;;7.00;4.57;;;;;;;;;;5122367;28;20056;-77
2024/01/20 11:13:26;;;;;;;7.05;4.78;;;;;;;;;;5111915;27;20273;-77
2024/01/20 11:15:53;;;;;;;8.00;5.82;;;;;;;;;;5123390;27;20047;-76
2024/01/20 11:18:21;;;;;;;6.63;4.43;;;;;;;;;;5143633;27;20106;-78
2024/01/20 11:21:02;;;;;;;6.85;4.55;;;;;;;;;;5143126;27;20074;-78
2024/01/20 11:23:29;;;;;;;;;;;;;;;;;;5139328;27;20054;-77
2024/01/20 11:25:57;;;;;;;6.85;4.97;;;;;;;;;;5126137;27;19951;-77
2024/01/20 11:28:32;;;;;;;7.28;4.93;;;;;;;;;;5135873;27;20358;-76
2024/01/20 11:31:00;;;;;;;6.85;4.70;;;;;;;;;;5143194;27;20106;-77
2024/01/20 11:33:27;;;;;;;7.90;4.90;;;;;;;;;;5131412;27;20298;-76
2024/01/20 11:35:54;;;;;;;8.13;5.32;;;;;;;;;;5139893;27;20043;-77
2024/01/20 11:38:21;;;;;;;6.70;4.85;;;;;;;;;;5122589;27;20051;-76
2024/01/20 11:41:01;;;;;;;7.45;5.00;;;;;;;;;;5126997;27;20077;-76
2024/01/20 11:43:28;;;;;;;8.02;5.15;;;;;;;;;;5142706;27;20051;-77
2024/01/20 11:45:56;;;;;;;7.47;4.82;;;;;;;;;;5142263;27;20110;-77
2024/01/20 11:48:24;;;;;;;7.88;4.75;;;;;;;;;;5134439;27;20040;-78
2024/01/20 11:50:51;;;;;;;6.45;4.32;;;;;;;;;;5133320;27;20039;-78
2024/01/20 11:53:21;;;;;;;5.80;3.67;;;;;;;;;;5142437;27;20229;-78
2024/01/20 11:55:59;;;;;;;7.03;4.40;;;;;;;;;;5142173;27;20051;-77
2024/01/20 11:58:27;;;;;;;6.10;3.92;;;;;;;;;;5123745;27;20044;-77
2024/01/20 12:00:54;;;;;;;5.60;4.10;;;;;;;;;;5121628;28;20355;-78
2024/01/20 12:03:22;;;;;;;6.93;4.22;;;;;;;;;;5121855;28;20059;-80
2024/01/20 12:05:52;;;;;;;6.73;4.50;;;;;;;;;;5121570;28;20202;-78
2024/01/20 12:08:21;;;;;;;8.10;3.95;;;;;;;;;;5121670;28;20044;-79
2024/01/20 12:10:49;;;;;;;6.43;4.22;;;;;;;;;;5121058;28;20112;-77
2024/01/20 12:13:16;;;;;;;6.90;4.65;;;;;;;;;;5130872;27;20055;-76
2024/01/20 12:15:46;;;;;;;5.80;4.15;;;;;;;;;;5141128;27;20088;-79
2024/01/20 12:18:15;;;;;;;5.75;4.22;;;;;;;;;;5142094;27;20043;-76
2024/01/20 12:20:43;;;;;;;4.07;3.03;;;;;;;;;;5141891;27;20119;-75
2024/01/20 12:23:09;;;;;;;6.20;3.50;;;;;;;;;;5131073;27;20069;-72
2024/01/20 12:25:36;;;;;;;3.85;2.75;;;;;;;;;;5134456;27;20057;-75
2024/01/20 12:28:03;;;;;;;4.78;3.30;;;;;;;;;;5130048;27;20044;-76
2024/01/20 12:30:30;;;;;;;4.65;3.25;;;;;;;;;;5121450;28;20486;-72
2024/01/20 12:32:57;;;;;;;6.63;3.40;;;;;;;;;;5120735;28;20043;-74
2024/01/20 12:35:25;;;;;;;5.63;3.63;;;;;;;;;;5132472;27;20057;-81
2024/01/20 12:37:52;;;;;;;6.20;4.03;;;;;;;;;;5123886;27;20057;-76
2024/01/20 12:40:18;;;;;;;7.15;3.63;;;;;;;;;;5141231;27;20661;-74
2024/01/20 12:42:45;;;;;;;5.72;3.65;;;;;;;;;;5140813;27;20043;-75
2024/01/20 12:45:12;;;;;;;4.15;2.67;;;;;;;;;;5123476;27;20047;-76
2024/01/20 12:47:39;;;;;;;5.60;3.00;;;;;;;;;;5141681;27;20142;-77
2024/01/20 12:50:06;;;;;;;4.38;2.90;;;;;;;;;;5141486;27;20047;-77
2024/01/20 12:52:34;;;;;;;3.75;2.50;;;;;;;;;;5141944;27;20088;-76
2024/01/20 12:55:00;;;;;;;4.60;2.60;;;;;;;;;;5140802;27;20378;-76
2024/01/20 12:57:27;;;;;;;2.95;2.22;;;;;;;;;;5141290;27;20343;-74
2024/01/20 12:59:54;;;;;;;4.70;2.78;;;;;;;;;;5141452;27;20613;-77
2024/01/20 13:02:21;;;;;;;3.72;2.50;;;;;;;;;;5123408;28;20051;-77
2024/01/20 13:04:49;;;;;;;3.90;2.30;;;;;;;;;;5141566;27;20119;-79
2024/01/20 13:07:18;;;;;;;4.15;2.30;;;;;;;;;;5141295;27;20107;-77
2024/01/20 13:09:45;;;;;;;3.33;2.08;;;;;;;;;;5140934;27;20176;-78
2024/01/20 13:12:12;;;;;;;3.95;2.38;;;;;;;;;;5140878;27;20046;-79
2024/01/20 13:14:41;;;;;;;3.60;2.47;;;;;;;;;;5120769;28;20112;-84
2024/01/20 13:17:08;;;;;;;6.32;2.80;;;;;;;;;;5120690;28;20071;-84
2024/01/20 13:19:35;;;;;;;3.92;2.80;;;;;;;;;;5120925;28;20050;-84
2024/01/20 13:22:03;;;;;;;4.38;3.30;;;;;;;;;;5120529;28;20381;-79
2024/01/20 13:24:30;;;;;;;5.03;3.20;;;;;;;;;;5120421;28;20119;-80
2024/01/20 13:26:57;;;;;;;2.53;1.80;;;;;;;;;;5121442;28;20081;-77
2024/01/20 13:29:26;;;;;;;2.85;1.85;;;;;;;;;;5107455;28;20358;-79
2024/01/20 13:31:54;;;;;;;3.47;2.20;;;;;;;;;;5125366;28;20112;-78
2024/01/20 13:34:20;;;;;;;2.95;1.85;;;;;;;;;;5128005;27;20043;-75
2024/01/20 13:36:47;;;;;;;4.82;2.45;;;;;;;;;;5145358;27;20047;-76
2024/01/20 13:39:14;;;;;;;3.80;2.00;;;;;;;;;;5145016;27;20073;-74
2024/01/20 13:41:41;;;;;;;3.00;2.00;;;;;;;;;;5145475;27;20044;-78
2024/01/20 13:44:08;;;;;;;3.05;1.88;;;;;;;;;;5145279;27;20378;-77
2024/01/20 13:46:35;;;;;;;2.20;1.70;;;;;;;;;;5144878;27;20235;-77
2024/01/20 13:49:02;;;;;;;3.40;2.20;;;;;;;;;;5144782;27;20062;-78
2024/01/20 13:51:32;;;;;;;3.00;2.00;;;;;;;;;;5145195;27;20081;-76
2024/01/20 13:53:59;;;;;;;3.25;2.10;;;;;;;;;;5144594;27;20058;-79
2024/01/20 13:56:27;;;;;;;3.60;2.30;;;;;;;;;;5126477;27;20111;-77
2024/01/20 13:58:55;;;;;;;6.68;2.50;;;;;;;;;;5144896;27;20265;-75
2024/01/20 14:01:22;;;;;;;3.22;1.80;;;;;;;;;;5144513;27;20162;-76
2024/01/20 14:03:49;;;;;;;2.88;1.98;;;;;;;;;;5140898;27;20081;-76
2024/01/20 14:06:17;;;;;;;2.95;2.10;;;;;;;;;;5132645;27;20044;-76
2024/01/20 14:08:45;;;;;;;4.13;1.88;;;;;;;;;;5134702;27;20057;-76
2024/01/20 14:11:11;;;;;;;3.72;2.10;;;;;;;;;;5144528;27;20047;-77
2024/01/20 14:13:38;;;;;;;3.65;2.10;;;;;;;;;;5140236;27;20047;-76
2024/01/20 14:16:05;;;;;;;2.70;1.95;;;;;;;;;;5144651;27;20075;-76
2024/01/20 14:18:32;;;;;;;3.35;1.90;;;;;;;;;;5144800;27;20062;-76
2024/01/20 14:20:59;;;;;;;3.00;1.77;;;;;;;;;;5137835;27;20047;-77
2024/01/20 14:23:28;;;;;;;4.72;1.98;;;;;;;;;;5123871;28;20269;-76
2024/01/20 14:25:54;;;;;;;3.00;1.98;;;;;;;;;;5128117;27;20042;-75
2024/01/20 14:28:21;;;;;;;3.90;2.30;;;;;;;;;;5129570;27;20324;-76
2024/01/20 14:30:48;;;;;;;2.75;1.90;;;;;;;;;;5122797;28;20055;-76
2024/01/20 14:33:15;;;;;;;4.35;2.10;;;;;;;;;;5122834;28;20106;-76
2024/01/20 14:35:42;;;;;;;4.18;2.50;;;;;;;;;;5123414;28;20111;-76
2024/01/20 14:38:09;;;;;;;6.30;2.58;;;;;;;;;;5104613;28;20048;-75
2024/01/20 14:40:36;;;;;;;4.65;2.60;;;;;;;;;;5126055;27;20050;-75
2024/01/20 14:43:02;;;;;;;3.83;2.10;;;;;;;;;;5133543;27;20066;-76
2024/01/20 14:45:35;;;;;;;4.93;2.42;;;;;;;;;;5128813;27;20051;-75